Time,TemperatureF,DewpointF,PressureIn,WindDirection,WindDirectionDegrees,WindSpeedMPH,WindSpeedGustMPH,Humidity,HourlyPrecipIn,Conditions,Clouds,dailyrainin,SoftwareType,DateUTC
2013-03-05 00:00:00,46.0,32.0,29.97,West,264,0.0,0.0,57,0.00,,,-99.99,wx200d/1.3,2013-03-05 08:00:00,
2013-03-05 00:15:00,45.3,32.0,29.97,West,259,0.0,0.0,57,0.00,,,-99.99,wx200d/1.3,2013-03-05 08:15:00,
2013-03-05 00:30:00,44.8,32.0,29.94,West,259,0.0,0.0,57,0.00,,,-99.99,wx200d/1.3,2013-03-05 08:30:00,
2013-03-05 00:45:00,44.1,32.0,29.94,West,259,0.0,0.0,57,0.00,,,-99.99,wx200d/1.3,2013-03-05 08:45:00,
2013-03-05 01:00:00,44.1,32.0,29.97,West,259,0.0,0.0,58,0.00,,,-99.99,wx200d/1.3,2013-03-05 09:00:00,
2013-03-05 01:15:00,44.1,32.0,29.97,West,259,0.0,0.0,59,0.00,,,-99.99,wx200d/1.3,2013-03-05 09:15:00,
2013-03-05 01:30:00,44.4,32.0,29.97,West,259,0.0,0.0,60,0.00,,,-99.99,wx200d/1.3,2013-03-05 09:30:00,
2013-03-05 01:45:00,45.3,32.0,29.97,East,93,0.0,0.0,60,0.00,,,-99.99,wx200d/1.3,2013-03-05 09:45:00,
2013-03-05 02:00:00,46.2,34.0,29.97,West,275,0.0,0.0,60,0.00,,,-99.99,wx200d/1.3,2013-03-05 10:00:00,
2013-03-05 02:15:00,46.4,32.0,29.97,West,269,0.0,0.0,57,0.00,,,-99.99,wx200d/1.3,2013-03-05 10:15:00,
2013-03-05 02:30:00,46.0,32.0,29.97,West,272,0.0,0.0,55,0.00,,,-99.99,wx200d/1.3,2013-03-05 10:30:00,
2013-03-05 02:45:00,45.9,32.0,29.97,West,268,0.0,0.0,54,0.00,,,-99.99,wx200d/1.3,2013-03-05 10:45:00,
2013-03-05 03:00:00,45.7,32.0,29.94,West,275,0.0,0.0,54,0.00,,,-99.99,wx200d/1.3,2013-03-05 11:00:00,
2013-03-05 03:15:00,45.3,32.0,29.94,WNW,284,0.0,0.0,53,0.00,,,-99.99,wx200d/1.3,2013-03-05 11:15:00,
2013-03-05 03:30:00,44.8,32.0,29.94,WNW,284,0.0,0.0,53,0.00,,,-99.99,wx200d/1.3,2013-03-05 11:30:00,
2013-03-05 03:45:00,44.2,32.0,29.94,WNW,284,0.0,0.0,54,0.00,,,-99.99,wx200d/1.3,2013-03-05 11:45:00,
2013-03-05 04:00:00,44.2,32.0,29.94,WNW,284,0.0,0.0,55,0.00,,,-99.99,wx200d/1.3,2013-03-05 12:00:00,
2013-03-05 04:15:00,44.6,32.0,29.94,WNW,284,0.0,0.0,55,0.00,,,-99.99,wx200d/1.3,2013-03-05 12:15:00,
2013-03-05 04:30:00,44.4,32.0,29.97,WNW,284,0.0,0.0,56,0.00,,,-99.99,wx200d/1.3,2013-03-05 12:30:00,
2013-03-05 04:45:00,44.8,32.0,29.97,WNW,284,0.0,0.0,56,0.00,,,-99.99,wx200d/1.3,2013-03-05 12:45:00,
2013-03-05 05:00:00,44.8,32.0,29.94,WNW,284,0.0,0.0,56,0.00,,,-99.99,wx200d/1.3,2013-03-05 13:00:00,
2013-03-05 05:15:00,44.8,32.0,29.94,WNW,284,0.0,0.0,56,0.00,,,-99.99,wx200d/1.3,2013-03-05 13:15:00,
2013-03-05 05:30:00,45.7,32.0,29.94,WNW,284,0.0,0.0,57,0.00,,,-99.99,wx200d/1.3,2013-03-05 13:30:00,
2013-03-05 05:45:00,45.5,32.0,29.94,WNW,284,0.0,0.0,57,0.00,,,-99.99,wx200d/1.3,2013-03-05 13:45:00,
2013-03-05 06:00:00,45.5,32.0,29.94,WNW,284,0.0,0.0,56,0.00,,,-99.99,wx200d/1.3,2013-03-05 14:00:00,
2013-03-05 06:15:00,45.0,32.0,29.94,WNW,284,0.0,0.0,56,0.00,,,-99.99,wx200d/1.3,2013-03-05 14:15:00,
2013-03-05 06:30:00,44.1,32.0,29.94,WNW,284,0.0,0.0,56,0.00,,,-99.99,wx200d/1.3,2013-03-05 14:30:00,
2013-03-05 06:45:00,43.7,32.0,29.94,WNW,284,0.0,0.0,56,0.00,,,-99.99,wx200d/1.3,2013-03-05 14:45:00,
2013-03-05 07:00:00,44.8,32.0,29.97,WNW,284,0.0,0.0,57,0.00,,,-99.99,wx200d/1.3,2013-03-05 15:00:00,
2013-03-05 07:15:00,45.7,32.0,29.94,WNW,284,0.0,0.0,56,0.00,,,-99.99,wx200d/1.3,2013-03-05 15:15:00,
2013-03-05 07:30:00,46.0,32.0,29.94,WNW,284,0.0,0.0,56,0.00,,,-99.99,wx200d/1.3,2013-03-05 15:30:00,
2013-03-05 07:45:00,46.6,32.0,29.94,WNW,284,0.0,0.0,54,0.00,,,-99.99,wx200d/1.3,2013-03-05 15:45:00,
2013-03-05 08:00:00,47.5,32.0,29.94,WNW,284,0.0,0.0,50,0.00,,,-99.99,wx200d/1.3,2013-03-05 16:00:00,
2013-03-05 08:15:00,48.6,32.0,29.94,WNW,284,0.0,0.0,46,0.00,,,-99.99,wx200d/1.3,2013-03-05 16:15:00,
2013-03-05 08:30:00,49.1,32.0,29.94,WNW,284,0.0,0.0,42,0.00,,,-99.99,wx200d/1.3,2013-03-05 16:30:00,
2013-03-05 08:45:00,50.2,32.0,29.94,WNW,284,0.0,0.0,39,0.00,,,-99.99,wx200d/1.3,2013-03-05 16:45:00,
2013-03-05 09:00:00,51.3,32.0,29.94,WNW,284,0.0,0.0,36,0.00,,,-99.99,wx200d/1.3,2013-03-05 17:00:00,
2013-03-05 09:15:00,51.8,32.0,29.94,East,93,0.0,0.0,32,0.00,,,-99.99,wx200d/1.3,2013-03-05 17:15:00,
2013-03-05 09:30:00,52.5,32.0,29.94,West,267,0.0,0.0,32,0.00,,,-99.99,wx200d/1.3,2013-03-05 17:30:00,
2013-03-05 09:45:00,53.2,32.0,29.94,West,268,2.2,2.2,30,0.00,,,-99.99,wx200d/1.3,2013-03-05 17:45:00,
2013-03-05 10:00:00,54.1,32.0,29.94,West,279,0.0,0.0,29,0.00,,,-99.99,wx200d/1.3,2013-03-05 18:00:00,
2013-03-05 10:15:00,54.7,32.0,29.94,East,91,0.0,0.0,28,0.00,,,-99.99,wx200d/1.3,2013-03-05 18:15:00,
2013-03-05 10:30:00,55.9,32.0,29.94,ENE,76,0.0,0.0,27,0.00,,,-99.99,wx200d/1.3,2013-03-05 18:30:00,
2013-03-05 10:45:00,56.7,32.0,29.94,ENE,70,0.0,0.0,27,0.00,,,-99.99,wx200d/1.3,2013-03-05 18:45:00,
2013-03-05 11:00:00,56.7,32.0,29.94,ENE,61,0.0,0.0,27,0.00,,,-99.99,wx200d/1.3,2013-03-05 19:00:00,
2013-03-05 11:15:00,56.3,32.0,29.94,ENE,72,0.0,0.0,27,0.00,,,-99.99,wx200d/1.3,2013-03-05 19:15:00,
2013-03-05 11:30:00,56.7,32.0,29.94,East,87,2.2,2.7,27,0.00,,,-99.99,wx200d/1.3,2013-03-05 19:30:00,
2013-03-05 11:45:00,57.6,32.0,29.94,North,4,0.0,0.0,26,0.00,,,-99.99,wx200d/1.3,2013-03-05 19:45:00,
2013-03-05 12:00:00,57.7,32.0,29.94,East,88,2.7,2.7,26,0.00,,,-99.99,wx200d/1.3,2013-03-05 20:00:00,
2013-03-05 12:15:00,57.6,32.0,29.94,East,89,0.0,2.2,26,0.00,,,-99.99,wx200d/1.3,2013-03-05 20:15:00,
2013-03-05 12:30:00,57.6,32.0,29.91,ESE,122,0.0,0.0,26,0.00,,,-99.99,wx200d/1.3,2013-03-05 20:30:00,
2013-03-05 12:45:00,58.5,32.0,29.91,NE,43,0.0,2.2,25,0.00,,,-99.99,wx200d/1.3,2013-03-05 20:45:00,
2013-03-05 13:00:00,57.7,32.0,29.91,West,267,0.0,0.0,25,0.00,,,-99.99,wx200d/1.3,2013-03-05 21:00:00,
2013-03-05 13:15:00,58.5,32.0,29.91,East,89,0.0,0.0,25,0.00,,,-99.99,wx200d/1.3,2013-03-05 21:15:00,
2013-03-05 13:30:00,59.7,32.0,29.91,ENE,64,0.0,0.0,25,0.00,,,-99.99,wx200d/1.3,2013-03-05 21:30:00,
2013-03-05 13:45:00,59.7,32.0,29.88,NE,52,0.0,0.0,24,0.00,,,-99.99,wx200d/1.3,2013-03-05 21:45:00,
2013-03-05 14:00:00,59.7,32.0,29.88,West,273,0.0,0.0,24,0.00,,,-99.99,wx200d/1.3,2013-03-05 22:00:00,
2013-03-05 14:15:00,59.7,32.0,29.88,West,272,0.0,2.7,24,0.00,,,-99.99,wx200d/1.3,2013-03-05 22:15:00,
2013-03-05 14:30:00,58.8,32.0,29.88,West,272,2.2,2.7,25,0.00,,,-99.99,wx200d/1.3,2013-03-05 22:30:00,
2013-03-05 14:45:00,59.5,32.0,29.88,NW,305,0.0,0.0,24,0.00,,,-99.99,wx200d/1.3,2013-03-05 22:45:00,
2013-03-05 15:00:00,60.4,32.0,29.85,ESE,122,0.0,0.0,24,0.00,,,-99.99,wx200d/1.3,2013-03-05 23:00:00,
2013-03-05 15:15:00,61.3,32.0,29.85,West,271,0.0,0.0,24,0.00,,,-99.99,wx200d/1.3,2013-03-05 23:15:00,
2013-03-05 15:30:00,62.8,32.0,29.85,West,277,0.0,0.0,23,0.00,,,-99.99,wx200d/1.3,2013-03-05 23:30:00,
2013-03-05 15:45:00,63.3,32.0,29.83,WNW,283,0.0,0.0,23,0.00,,,-99.99,wx200d/1.3,2013-03-05 23:45:00,
2013-03-05 16:00:00,63.5,32.0,29.85,West,277,0.0,0.0,21,0.00,,,-99.99,wx200d/1.3,2013-03-06 00:00:00,
2013-03-05 16:15:00,62.2,32.0,29.83,East,90,0.0,2.2,21,0.00,,,-99.99,wx200d/1.3,2013-03-06 00:15:00,
2013-03-05 16:45:00,59.2,32.0,29.83,WNW,290,0.0,0.0,24,0.00,,,-99.99,wx200d/1.3,2013-03-06 00:45:00,
2013-03-05 17:00:00,58.8,32.0,29.83,WNW,289,0.0,0.0,24,0.00,,,-99.99,wx200d/1.3,2013-03-06 01:00:00,
2013-03-05 17:15:00,57.4,32.0,29.83,West,260,0.0,0.0,25,0.00,,,-99.99,wx200d/1.3,2013-03-06 01:15:00,
2013-03-05 17:30:00,56.5,32.0,29.80,West,270,0.0,0.0,25,0.00,,,-99.99,wx200d/1.3,2013-03-06 01:30:00,
2013-03-05 17:45:00,55.8,32.0,29.80,WNW,290,0.0,0.0,26,0.00,,,-99.99,wx200d/1.3,2013-03-06 01:45:00,
2013-03-05 18:00:00,55.0,32.0,29.80,West,266,0.0,0.0,26,0.00,,,-99.99,wx200d/1.3,2013-03-06 02:00:00,
2013-03-05 18:15:00,54.7,32.0,29.80,NW,310,0.0,0.0,27,0.00,,,-99.99,wx200d/1.3,2013-03-06 02:15:00,
2013-03-05 18:30:00,54.3,32.0,29.80,NE,51,0.0,2.2,27,0.00,,,-99.99,wx200d/1.3,2013-03-06 02:30:00,
2013-03-05 18:45:00,53.8,32.0,29.80,East,96,0.0,0.0,28,0.00,,,-99.99,wx200d/1.3,2013-03-06 02:45:00,
2013-03-05 19:00:00,53.2,32.0,29.80,West,276,0.0,0.0,29,0.00,,,-99.99,wx200d/1.3,2013-03-06 03:00:00,
2013-03-05 19:15:00,53.4,32.0,29.80,West,271,0.0,0.0,30,0.00,,,-99.99,wx200d/1.3,2013-03-06 03:15:00,
2013-03-05 19:30:00,53.6,32.0,29.77,East,88,0.0,3.6,29,0.00,,,-99.99,wx200d/1.3,2013-03-06 03:30:00,
2013-03-05 19:45:00,53.6,32.0,29.77,ENE,64,0.0,3.1,30,0.00,,,-99.99,wx200d/1.3,2013-03-06 03:45:00,
2013-03-05 20:00:00,53.4,32.0,29.77,East,95,0.0,2.2,30,0.00,,,-99.99,wx200d/1.3,2013-03-06 04:00:00,
2013-03-05 20:15:00,53.6,32.0,29.77,WNW,285,0.0,0.0,30,0.00,,,-99.99,wx200d/1.3,2013-03-06 04:15:00,
2013-03-05 20:30:00,53.6,32.0,29.77,East,98,0.0,0.0,31,0.00,,,-99.99,wx200d/1.3,2013-03-06 04:30:00,
2013-03-05 20:45:00,53.6,32.0,29.77,West,280,0.0,0.0,35,0.00,,,-99.99,wx200d/1.3,2013-03-06 04:45:00,
2013-03-05 21:00:00,53.1,32.0,29.77,North,349,0.0,0.0,39,0.00,,,-99.99,wx200d/1.3,2013-03-06 05:00:00,
2013-03-05 21:15:00,52.5,32.0,29.77,ENE,75,0.0,0.0,46,0.00,,,-99.99,wx200d/1.3,2013-03-06 05:15:00,
2013-03-05 21:30:00,52.2,36.0,29.77,West,279,0.0,0.0,52,0.00,,,-99.99,wx200d/1.3,2013-03-06 05:30:00,
2013-03-05 21:45:00,51.6,36.0,29.77,West,269,0.0,0.0,55,0.00,,,-99.99,wx200d/1.3,2013-03-06 05:45:00,
2013-03-05 22:00:00,51.6,37.0,29.77,WNW,282,0.0,0.0,59,0.00,,,-99.99,wx200d/1.3,2013-03-06 06:00:00,
2013-03-05 22:15:00,51.4,39.0,29.77,SSW,195,0.0,0.0,61,0.00,,,-99.99,wx200d/1.3,2013-03-06 06:15:00,
2013-03-05 22:30:00,51.4,41.0,29.77,West,275,0.0,2.2,64,0.00,,,-99.99,wx200d/1.3,2013-03-06 06:30:00,
2013-03-05 22:45:00,51.4,37.0,29.77,West,273,0.0,2.2,60,0.00,,,-99.99,wx200d/1.3,2013-03-06 06:45:00,
2013-03-05 23:00:00,51.6,37.0,29.77,WNW,283,0.0,0.0,57,0.00,,,-99.99,wx200d/1.3,2013-03-06 07:00:00,
2013-03-05 23:15:00,51.8,36.0,29.77,West,274,0.0,3.1,54,0.00,,,-99.99,wx200d/1.3,2013-03-06 07:15:00,
2013-03-05 23:30:00,51.6,37.0,29.77,East,92,2.2,2.2,57,0.00,,,-99.99,wx200d/1.3,2013-03-06 07:30:00,
2013-03-05 23:45:00,51.4,39.0,29.74,West,278,2.2,0.0,61,0.00,,,-99.99,wx200d/1.3,2013-03-06 07:45:00,